sensor_id;sensor_type;location;lat;lon;timestamp;P1;durP1;ratioP1;P2;durP2;ratioP2
39222;SDS011;24936;46.328;11.026;2024-01-10T00:01:31;11.00;;;7.22;;
39222;SDS011;24936;46.328;11.026;2024-01-10T00:03:56;10.85;;;7.25;;
39222;SDS011;24936;46.328;11.026;2024-01-10T00:06:23;9.00;;;6.32;;
39222;SDS011;24936;46.328;11.026;2024-01-10T00:08:49;11.35;;;6.15;;
39222;SDS011;24936;46.328;11.026;2024-01-10T00:11:14;7.50;;;5.90;;
39222;SDS011;24936;46.328;11.026;2024-01-10T00:13:40;14.85;;;8.35;;
39222;SDS011;24936;46.328;11.026;2024-01-10T00:16:06;8.63;;;6.90;;
39222;SDS011;24936;46.328;11.026;2024-01-10T00:18:31;9.25;;;7.20;;
39222;SDS011;24936;46.328;11.026;2024-01-10T00:20:57;11.50;;;6.97;;
39222;SDS011;24936;46.328;11.026;2024-01-10T00:23:23;13.80;;;7.68;;
39222;SDS011;24936;46.328;11.026;2024-01-10T00:25:48;10.90;;;7.50;;
39222;SDS011;24936;46.328;11.026;2024-01-10T00:28:14;14.38;;;8.73;;
39222;SDS011;24936;46.328;11.026;2024-01-10T00:30:46;8.88;;;5.90;;
39222;SDS011;24936;46.328;11.026;2024-01-10T00:33:13;10.55;;;7.28;;
39222;SDS011;24936;46.328;11.026;2024-01-10T00:35:39;11.52;;;7.82;;
39222;SDS011;24936;46.328;11.026;2024-01-10T00:38:04;10.55;;;7.38;;
39222;SDS011;24936;46.328;11.026;2024-01-10T00:40:30;12.95;;;9.50;;
39222;SDS011;24936;46.328;11.026;2024-01-10T00:42:55;14.32;;;9.63;;
39222;SDS011;24936;46.328;11.026;2024-01-10T00:45:20;10.57;;;6.60;;
39222;SDS011;24936;46.328;11.026;2024-01-10T00:47:48;13.88;;;6.85;;
39222;SDS011;24936;46.328;11.026;2024-01-10T00:50:14;10.95;;;8.23;;
39222;SDS011;24936;46.328;11.026;2024-01-10T00:52:40;8.13;;;7.18;;
39222;SDS011;24936;46.328;11.026;2024-01-10T00:55:05;14.02;;;9.23;;
39222;SDS011;24936;46.328;11.026;2024-01-10T00:57:31;11.48;;;7.10;;
39222;SDS011;24936;46.328;11.026;2024-01-10T00:59:56;14.88;;;7.78;;
39222;SDS011;24936;46.328;11.026;2024-01-10T01:02:22;9.80;;;8.43;;
39222;SDS011;24936;46.328;11.026;2024-01-10T01:04:47;11.10;;;7.25;;
39222;SDS011;24936;46.328;11.026;2024-01-10T01:07:13;10.98;;;7.05;;
39222;SDS011;24936;46.328;11.026;2024-01-10T01:09:38;11.10;;;7.55;;
39222;SDS011;24936;46.328;11.026;2024-01-10T01:12:04;13.68;;;8.23;;
39222;SDS011;24936;46.328;11.026;2024-01-10T01:14:29;10.90;;;7.65;;
39222;SDS011;24936;46.328;11.026;2024-01-10T01:16:55;10.73;;;6.47;;
39222;SDS011;24936;46.328;11.026;2024-01-10T01:19:20;12.90;;;8.30;;
39222;SDS011;24936;46.328;11.026;2024-01-10T01:21:46;12.30;;;8.07;;
39222;SDS011;24936;46.328;11.026;2024-01-10T01:24:11;12.75;;;8.00;;
39222;SDS011;24936;46.328;11.026;2024-01-10T01:26:36;9.27;;;6.63;;
39222;SDS011;24936;46.328;11.026;2024-01-10T01:29:02;13.30;;;8.05;;
39222;SDS011;24936;46.328;11.026;2024-01-10T01:31:27;9.82;;;7.45;;
39222;SDS011;24936;46.328;11.026;2024-01-10T01:33:53;12.93;;;8.15;;
39222;SDS011;24936;46.328;11.026;2024-01-10T01:36:18;11.32;;;7.20;;
39222;SDS011;24936;46.328;11.026;2024-01-10T01:38:43;6.82;;;5.85;;
39222;SDS011;24936;46.328;11.026;2024-01-10T01:41:09;11.75;;;7.38;;
39222;SDS011;24936;46.328;11.026;2024-01-10T01:43:34;14.13;;;8.25;;
39222;SDS011;24936;46.328;11.026;2024-01-10T01:46:00;10.05;;;7.50;;
39222;SDS011;24936;46.328;11.026;2024-01-10T01:48:26;15.60;;;8.80;;
39222;SDS011;24936;46.328;11.026;2024-01-10T01:50:52;12.23;;;7.80;;
39222;SDS011;24936;46.328;11.026;2024-01-10T01:53:21;9.68;;;7.18;;
39222;SDS011;24936;46.328;11.026;2024-01-10T01:55:47;11.75;;;6.72;;
39222;SDS011;24936;46.328;11.026;2024-01-10T01:58:13;20.67;;;4.50;;
39222;SDS011;24936;46.328;11.026;2024-01-10T02:00:40;14.40;;;9.07;;
39222;SDS011;24936;46.328;11.026;2024-01-10T02:03:06;14.52;;;8.43;;
39222;SDS011;24936;46.328;11.026;2024-01-10T02:05:33;8.70;;;7.15;;
39222;SDS011;24936;46.328;11.026;2024-01-10T02:07:59;15.80;;;9.05;;
39222;SDS011;24936;46.328;11.026;2024-01-10T02:10:25;12.32;;;8.40;;
39222;SDS011;24936;46.328;11.026;2024-01-10T02:12:50;9.25;;;7.13;;
39222;SDS011;24936;46.328;11.026;2024-01-10T02:15:15;12.38;;;9.23;;
39222;SDS011;24936;46.328;11.026;2024-01-10T02:17:42;12.00;;;8.85;;
39222;SDS011;24936;46.328;11.026;2024-01-10T02:20:08;17.50;;;9.30;;
39222;SDS011;24936;46.328;11.026;2024-01-10T02:22:34;13.30;;;8.98;;
39222;SDS011;24936;46.328;11.026;2024-01-10T02:24:59;17.50;;;9.15;;
39222;SDS011;24936;46.328;11.026;2024-01-10T02:27:25;10.55;;;8.15;;
39222;SDS011;24936;46.328;11.026;2024-01-10T02:29:51;16.30;;;11.18;;
39222;SDS011;24936;46.328;11.026;2024-01-10T02:32:18;14.68;;;9.50;;
39222;SDS011;24936;46.328;11.026;2024-01-10T02:34:43;12.48;;;8.48;;
39222;SDS011;24936;46.328;11.026;2024-01-10T02:37:09;12.75;;;9.15;;
39222;SDS011;24936;46.328;11.026;2024-01-10T02:39:34;20.60;;;10.82;;
39222;SDS011;24936;46.328;11.026;2024-01-10T02:41:59;12.57;;;8.40;;
39222;SDS011;24936;46.328;11.026;2024-01-10T02:44:25;15.85;;;9.85;;
39222;SDS011;24936;46.328;11.026;2024-01-10T02:46:50;8.65;;;7.50;;
39222;SDS011;24936;46.328;11.026;2024-01-10T02:49:16;19.17;;;9.25;;
39222;SDS011;24936;46.328;11.026;2024-01-10T02:51:43;14.25;;;5.43;;
39222;SDS011;24936;46.328;11.026;2024-01-10T02:54:09;14.55;;;8.77;;
39222;SDS011;24936;46.328;11.026;2024-01-10T02:56:34;10.45;;;6.72;;
39222;SDS011;24936;46.328;11.026;2024-01-10T02:58:59;7.93;;;6.13;;
39222;SDS011;24936;46.328;11.026;2024-01-10T03:01:25;14.05;;;9.40;;
39222;SDS011;24936;46.328;11.026;2024-01-10T03:03:50;17.45;;;9.57;;
39222;SDS011;24936;46.328;11.026;2024-01-10T03:06:16;12.27;;;10.00;;
39222;SDS011;24936;46.328;11.026;2024-01-10T03:08:41;14.00;;;8.85;;
39222;SDS011;24936;46.328;11.026;2024-01-10T03:11:07;12.20;;;8.60;;
39222;SDS011;24936;46.328;11.026;2024-01-10T03:13:32;13.65;;;9.52;;
39222;SDS011;24936;46.328;11.026;2024-01-10T03:15:58;10.68;;;8.43;;
39222;SDS011;24936;46.328;11.026;2024-01-10T03:18:24;16.33;;;8.88;;
39222;SDS011;24936;46.328;11.026;2024-01-10T03:20:49;23.08;;;8.60;;
39222;SDS011;24936;46.328;11.026;2024-01-10T03:23:15;16.42;;;9.50;;
39222;SDS011;24936;46.328;11.026;2024-01-10T03:25:40;15.95;;;9.00;;
39222;SDS011;24936;46.328;11.026;2024-01-10T03:28:06;16.20;;;9.02;;
39222;SDS011;24936;46.328;11.026;2024-01-10T03:30:31;12.50;;;8.20;;
39222;SDS011;24936;46.328;11.026;2024-01-10T03:32:57;16.92;;;8.55;;
39222;SDS011;24936;46.328;11.026;2024-01-10T03:35:22;10.38;;;7.30;;
39222;SDS011;24936;46.328;11.026;2024-01-10T03:37:47;17.83;;;9.55;;
39222;SDS011;24936;46.328;11.026;2024-01-10T03:40:13;19.50;;;11.65;;
39222;SDS011;24936;46.328;11.026;2024-01-10T03:42:38;15.32;;;10.18;;
39222;SDS011;24936;46.328;11.026;2024-01-10T03:45:04;18.60;;;10.13;;
39222;SDS011;24936;46.328;11.026;2024-01-10T03:47:30;19.45;;;10.95;;
39222;SDS011;24936;46.328;11.026;2024-01-10T03:49:55;15.27;;;9.73;;
39222;SDS011;24936;46.328;11.026;2024-01-10T03:52:21;16.70;;;11.10;;
39222;SDS011;24936;46.328;11.026;2024-01-10T03:54:46;16.60;;;11.35;;
39222;SDS011;24936;46.328;11.026;2024-01-10T03:57:12;24.17;;;12.00;;
39222;SDS011;24936;46.328;11.026;2024-01-10T03:59:37;16.92;;;10.82;;
39222;SDS011;24936;46.328;11.026;2024-01-10T04:02:03;20.60;;;11.45;;
39222;SDS011;24936;46.328;11.026;2024-01-10T04:04:28;22.45;;;12.35;;
39222;SDS011;24936;46.328;11.026;2024-01-10T04:06:54;17.30;;;11.30;;
39222;SDS011;24936;46.328;11.026;2024-01-10T04:09:19;20.13;;;12.93;;
39222;SDS011;24936;46.328;11.026;2024-01-10T04:11:45;22.17;;;12.80;;
39222;SDS011;24936;46.328;11.026;2024-01-10T04:14:10;31.80;;;16.85;;
39222;SDS011;24936;46.328;11.026;2024-01-10T04:16:36;31.95;;;15.05;;
39222;SDS011;24936;46.328;11.026;2024-01-10T04:19:02;20.27;;;11.57;;
39222;SDS011;24936;46.328;11.026;2024-01-10T04:21:27;17.25;;;11.50;;
39222;SDS011;24936;46.328;11.026;2024-01-10T04:23:53;21.02;;;12.90;;
39222;SDS011;24936;46.328;11.026;2024-01-10T04:26:18;20.75;;;11.27;;
39222;SDS011;24936;46.328;11.026;2024-01-10T04:28:43;18.70;;;12.38;;
39222;SDS011;24936;46.328;11.026;2024-01-10T04:31:09;19.23;;;11.02;;
39222;SDS011;24936;46.328;11.026;2024-01-10T04:33:34;19.48;;;10.50;;
39222;SDS011;24936;46.328;11.026;2024-01-10T04:36:00;19.38;;;11.98;;
39222;SDS011;24936;46.328;11.026;2024-01-10T04:38:25;18.33;;;11.38;;
39222;SDS011;24936;46.328;11.026;2024-01-10T04:40:52;18.05;;;10.13;;
39222;SDS011;24936;46.328;11.026;2024-01-10T04:43:18;21.45;;;12.40;;
39222;SDS011;24936;46.328;11.026;2024-01-10T04:45:43;15.63;;;9.23;;
39222;SDS011;24936;46.328;11.026;2024-01-10T04:48:09;17.55;;;10.30;;
39222;SDS011;24936;46.328;11.026;2024-01-10T04:50:34;18.02;;;11.02;;
39222;SDS011;24936;46.328;11.026;2024-01-10T04:53:00;21.10;;;11.13;;
39222;SDS011;24936;46.328;11.026;2024-01-10T04:55:26;21.90;;;10.57;;
39222;SDS011;24936;46.328;11.026;2024-01-10T04:57:52;16.10;;;10.30;;
39222;SDS011;24936;46.328;11.026;2024-01-10T05:00:18;20.83;;;10.98;;
39222;SDS011;24936;46.328;11.026;2024-01-10T05:02:43;17.52;;;10.00;;
39222;SDS011;24936;46.328;11.026;2024-01-10T05:05:09;27.70;;;15.25;;
39222;SDS011;24936;46.328;11.026;2024-01-10T05:07:34;16.85;;;11.38;;
39222;SDS011;24936;46.328;11.026;2024-01-10T05:10:00;20.77;;;12.60;;
39222;SDS011;24936;46.328;11.026;2024-01-10T05:12:25;18.15;;;11.07;;
39222;SDS011;24936;46.328;11.026;2024-01-10T05:14:51;24.67;;;13.07;;
39222;SDS011;24936;46.328;11.026;2024-01-10T05:17:17;27.10;;;14.48;;
39222;SDS011;24936;46.328;11.026;2024-01-10T05:19:42;23.80;;;13.10;;
39222;SDS011;24936;46.328;11.026;2024-01-10T05:22:08;22.52;;;14.57;;
39222;SDS011;24936;46.328;11.026;2024-01-10T05:24:34;26.98;;;13.57;;
39222;SDS011;24936;46.328;11.026;2024-01-10T05:27:00;22.75;;;13.90;;
39222;SDS011;24936;46.328;11.026;2024-01-10T05:29:26;26.35;;;14.50;;
39222;SDS011;24936;46.328;11.026;2024-01-10T05:31:52;21.90;;;13.02;;
39222;SDS011;24936;46.328;11.026;2024-01-10T05:34:17;20.08;;;12.18;;
39222;SDS011;24936;46.328;11.026;2024-01-10T05:36:43;20.25;;;12.18;;
39222;SDS011;24936;46.328;11.026;2024-01-10T05:39:08;22.70;;;11.82;;
39222;SDS011;24936;46.328;11.026;2024-01-10T05:41:34;22.08;;;11.68;;
39222;SDS011;24936;46.328;11.026;2024-01-10T05:43:59;19.10;;;12.20;;
39222;SDS011;24936;46.328;11.026;2024-01-10T05:46:25;19.35;;;11.95;;
39222;SDS011;24936;46.328;11.026;2024-01-10T05:48:53;20.95;;;11.43;;
39222;SDS011;24936;46.328;11.026;2024-01-10T05:51:18;19.17;;;11.07;;
39222;SDS011;24936;46.328;11.026;2024-01-10T05:53:44;20.20;;;11.73;;
39222;SDS011;24936;46.328;11.026;2024-01-10T05:56:09;21.35;;;11.30;;
39222;SDS011;24936;46.328;11.026;2024-01-10T05:58:35;15.80;;;11.10;;
39222;SDS011;24936;46.328;11.026;2024-01-10T06:01:00;18.88;;;12.75;;
39222;SDS011;24936;46.328;11.026;2024-01-10T06:03:26;23.70;;;14.95;;
39222;SDS011;24936;46.328;11.026;2024-01-10T06:05:51;16.52;;;11.90;;
39222;SDS011;24936;46.328;11.026;2024-01-10T06:08:17;21.50;;;11.18;;
39222;SDS011;24936;46.328;11.026;2024-01-10T06:10:42;19.42;;;12.68;;
39222;SDS011;24936;46.328;11.026;2024-01-10T06:13:07;18.10;;;11.40;;
39222;SDS011;24936;46.328;11.026;2024-01-10T06:15:33;19.13;;;12.15;;
39222;SDS011;24936;46.328;11.026;2024-01-10T06:17:58;17.90;;;12.07;;
39222;SDS011;24936;46.328;11.026;2024-01-10T06:20:24;21.70;;;13.57;;
39222;SDS011;24936;46.328;11.026;2024-01-10T06:22:49;17.65;;;11.48;;
39222;SDS011;24936;46.328;11.026;2024-01-10T06:25:15;20.23;;;12.85;;
39222;SDS011;24936;46.328;11.026;2024-01-10T06:27:40;18.00;;;11.90;;
39222;SDS011;24936;46.328;11.026;2024-01-10T06:30:06;20.65;;;13.68;;
39222;SDS011;24936;46.328;11.026;2024-01-10T06:32:32;33.75;;;14.93;;
39222;SDS011;24936;46.328;11.026;2024-01-10T06:34:58;27.88;;;16.00;;
39222;SDS011;24936;46.328;11.026;2024-01-10T06:37:25;30.23;;;15.20;;
39222;SDS011;24936;46.328;11.026;2024-01-10T06:39:51;29.02;;;14.65;;
39222;SDS011;24936;46.328;11.026;2024-01-10T06:42:16;26.48;;;14.73;;
39222;SDS011;24936;46.328;11.026;2024-01-10T06:44:42;31.48;;;15.07;;
39222;SDS011;24936;46.328;11.026;2024-01-10T06:47:07;32.08;;;16.05;;
39222;SDS011;24936;46.328;11.026;2024-01-10T06:49:33;21.23;;;13.70;;
39222;SDS011;24936;46.328;11.026;2024-01-10T06:51:58;23.27;;;14.73;;
39222;SDS011;24936;46.328;11.026;2024-01-10T06:54:25;17.67;;;11.43;;
39222;SDS011;24936;46.328;11.026;2024-01-10T06:56:51;24.15;;;12.45;;
39222;SDS011;24936;46.328;11.026;2024-01-10T06:59:16;31.27;;;16.65;;
39222;SDS011;24936;46.328;11.026;2024-01-10T07:01:42;25.60;;;12.65;;
39222;SDS011;24936;46.328;11.026;2024-01-10T07:04:07;26.48;;;14.02;;
39222;SDS011;24936;46.328;11.026;2024-01-10T07:06:33;29.48;;;16.48;;
39222;SDS011;24936;46.328;11.026;2024-01-10T07:08:58;18.42;;;11.52;;
39222;SDS011;24936;46.328;11.026;2024-01-10T07:11:48;25.02;;;13.90;;
39222;SDS011;24936;46.328;11.026;2024-01-10T07:14:14;28.35;;;16.20;;
39222;SDS011;24936;46.328;11.026;2024-01-10T07:16:40;25.42;;;16.20;;
39222;SDS011;24936;46.328;11.026;2024-01-10T07:19:08;29.17;;;17.05;;
39222;SDS011;24936;46.328;11.026;2024-01-10T07:21:34;19.83;;;12.70;;
39222;SDS011;24936;46.328;11.026;2024-01-10T07:23:59;25.63;;;14.23;;
39222;SDS011;24936;46.328;11.026;2024-01-10T07:26:25;22.33;;;12.95;;
39222;SDS011;24936;46.328;11.026;2024-01-10T07:28:52;27.25;;;15.15;;
39222;SDS011;24936;46.328;11.026;2024-01-10T07:31:18;23.50;;;13.73;;
39222;SDS011;24936;46.328;11.026;2024-01-10T07:33:43;28.55;;;13.95;;
39222;SDS011;24936;46.328;11.026;2024-01-10T07:38:55;28.00;;;16.08;;
39222;SDS011;24936;46.328;11.026;2024-01-10T07:41:22;28.52;;;13.68;;
39222;SDS011;24936;46.328;11.026;2024-01-10T07:43:49;28.25;;;12.82;;
39222;SDS011;24936;46.328;11.026;2024-01-10T07:46:14;21.67;;;13.38;;
39222;SDS011;24936;46.328;11.026;2024-01-10T07:48:40;31.25;;;15.48;;
39222;SDS011;24936;46.328;11.026;2024-01-10T07:51:06;28.08;;;11.65;;
39222;SDS011;24936;46.328;11.026;2024-01-10T07:53:32;31.70;;;14.60;;
39222;SDS011;24936;46.328;11.026;2024-01-10T07:55:58;22.50;;;14.00;;
39222;SDS011;24936;46.328;11.026;2024-01-10T07:58:24;31.67;;;16.70;;
39222;SDS011;24936;46.328;11.026;2024-01-10T08:00:49;32.55;;;17.55;;
39222;SDS011;24936;46.328;11.026;2024-01-10T08:03:16;34.13;;;18.48;;
39222;SDS011;24936;46.328;11.026;2024-01-10T08:05:41;26.88;;;15.95;;
39222;SDS011;24936;46.328;11.026;2024-01-10T08:08:07;25.98;;;15.90;;
39222;SDS011;24936;46.328;11.026;2024-01-10T08:10:32;26.80;;;15.80;;
39222;SDS011;24936;46.328;11.026;2024-01-10T08:12:58;32.67;;;16.02;;
39222;SDS011;24936;46.328;11.026;2024-01-10T08:15:24;42.08;;;22.17;;
39222;SDS011;24936;46.328;11.026;2024-01-10T08:17:50;40.25;;;19.52;;
39222;SDS011;24936;46.328;11.026;2024-01-10T08:20:15;34.28;;;17.58;;
39222;SDS011;24936;46.328;11.026;2024-01-10T08:25:11;35.83;;;18.77;;
39222;SDS011;24936;46.328;11.026;2024-01-10T08:27:37;39.90;;;19.35;;
39222;SDS011;24936;46.328;11.026;2024-01-10T08:30:03;55.40;;;29.15;;
39222;SDS011;24936;46.328;11.026;2024-01-10T08:32:30;41.58;;;22.38;;
39222;SDS011;24936;46.328;11.026;2024-01-10T08:34:55;34.17;;;19.88;;
39222;SDS011;24936;46.328;11.026;2024-01-10T08:37:21;33.60;;;16.60;;
39222;SDS011;24936;46.328;11.026;2024-01-10T08:39:46;30.08;;;17.65;;
39222;SDS011;24936;46.328;11.026;2024-01-10T08:42:12;33.05;;;18.45;;
39222;SDS011;24936;46.328;11.026;2024-01-10T08:44:38;31.85;;;17.95;;
39222;SDS011;24936;46.328;11.026;2024-01-10T08:47:03;29.83;;;16.90;;
39222;SDS011;24936;46.328;11.026;2024-01-10T08:49:29;43.03;;;21.90;;
39222;SDS011;24936;46.328;11.026;2024-01-10T08:51:55;40.67;;;21.42;;
39222;SDS011;24936;46.328;11.026;2024-01-10T08:54:20;30.35;;;17.95;;
39222;SDS011;24936;46.328;11.026;2024-01-10T08:56:47;31.33;;;18.48;;
39222;SDS011;24936;46.328;11.026;2024-01-10T08:59:13;33.92;;;19.58;;
39222;SDS011;24936;46.328;11.026;2024-01-10T09:01:38;34.70;;;17.65;;
39222;SDS011;24936;46.328;11.026;2024-01-10T09:04:04;25.23;;;13.77;;
39222;SDS011;24936;46.328;11.026;2024-01-10T09:06:31;19.20;;;12.95;;
39222;SDS011;24936;46.328;11.026;2024-01-10T09:09:02;18.85;;;11.65;;
39222;SDS011;24936;46.328;11.026;2024-01-10T09:11:28;22.58;;;12.05;;
39222;SDS011;24936;46.328;11.026;2024-01-10T09:13:54;21.75;;;12.77;;
39222;SDS011;24936;46.328;11.026;2024-01-10T09:16:19;21.35;;;13.20;;
39222;SDS011;24936;46.328;11.026;2024-01-10T09:18:45;23.73;;;12.80;;
39222;SDS011;24936;46.328;11.026;2024-01-10T09:21:10;20.05;;;12.00;;
39222;SDS011;24936;46.328;11.026;2024-01-10T09:23:36;23.52;;;15.80;;
39222;SDS011;24936;46.328;11.026;2024-01-10T09:26:02;23.42;;;13.50;;
39222;SDS011;24936;46.328;11.026;2024-01-10T09:28:27;27.83;;;17.05;;
39222;SDS011;24936;46.328;11.026;2024-01-10T09:30:53;25.83;;;15.40;;
39222;SDS011;24936;46.328;11.026;2024-01-10T09:33:19;23.58;;;16.05;;
39222;SDS011;24936;46.328;11.026;2024-01-10T09:35:44;18.70;;;13.90;;
39222;SDS011;24936;46.328;11.026;2024-01-10T09:38:10;21.77;;;13.80;;
39222;SDS011;24936;46.328;11.026;2024-01-10T09:40:36;22.13;;;14.32;;
39222;SDS011;24936;46.328;11.026;2024-01-10T09:43:03;20.80;;;14.23;;
39222;SDS011;24936;46.328;11.026;2024-01-10T09:45:30;23.27;;;13.20;;
39222;SDS011;24936;46.328;11.026;2024-01-10T09:47:59;22.75;;;15.10;;
39222;SDS011;24936;46.328;11.026;2024-01-10T09:50:26;34.50;;;18.33;;
39222;SDS011;24936;46.328;11.026;2024-01-10T09:52:52;27.95;;;16.50;;
39222;SDS011;24936;46.328;11.026;2024-01-10T09:55:21;24.77;;;16.42;;
39222;SDS011;24936;46.328;11.026;2024-01-10T09:57:48;19.67;;;13.98;;
39222;SDS011;24936;46.328;11.026;2024-01-10T10:00:15;21.38;;;14.00;;
39222;SDS011;24936;46.328;11.026;2024-01-10T10:02:41;27.88;;;17.63;;
39222;SDS011;24936;46.328;11.026;2024-01-10T10:10:31;21.38;;;13.57;;
39222;SDS011;24936;46.328;11.026;2024-01-10T10:12:57;25.50;;;14.30;;
39222;SDS011;24936;46.328;11.026;2024-01-10T10:15:23;30.52;;;16.50;;
39222;SDS011;24936;46.328;11.026;2024-01-10T10:17:53;29.33;;;16.35;;
39222;SDS011;24936;46.328;11.026;2024-01-10T10:20:23;32.38;;;18.88;;
39222;SDS011;24936;46.328;11.026;2024-01-10T10:23:00;31.25;;;16.30;;
39222;SDS011;24936;46.328;11.026;2024-01-10T10:25:31;33.05;;;18.83;;
39222;SDS011;24936;46.328;11.026;2024-01-10T10:30:23;23.33;;;15.10;;
39222;SDS011;24936;46.328;11.026;2024-01-10T10:32:49;14.07;;;9.50;;
39222;SDS011;24936;46.328;11.026;2024-01-10T10:35:15;20.95;;;13.88;;
39222;SDS011;24936;46.328;11.026;2024-01-10T10:37:40;19.25;;;11.65;;
39222;SDS011;24936;46.328;11.026;2024-01-10T10:40:06;18.95;;;11.80;;
39222;SDS011;24936;46.328;11.026;2024-01-10T10:42:35;17.33;;;12.27;;
39222;SDS011;24936;46.328;11.026;2024-01-10T10:45:09;16.45;;;9.60;;
39222;SDS011;24936;46.328;11.026;2024-01-10T10:47:37;19.48;;;11.57;;
39222;SDS011;24936;46.328;11.026;2024-01-10T10:50:04;18.73;;;9.45;;
39222;SDS011;24936;46.328;11.026;2024-01-10T10:52:31;26.98;;;11.45;;
39222;SDS011;24936;46.328;11.026;2024-01-10T10:54:58;18.02;;;11.02;;
39222;SDS011;24936;46.328;11.026;2024-01-10T10:57:27;23.25;;;11.68;;
39222;SDS011;24936;46.328;11.026;2024-01-10T10:59:52;12.38;;;7.78;;
39222;SDS011;24936;46.328;11.026;2024-01-10T11:02:20;11.32;;;7.55;;
39222;SDS011;24936;46.328;11.026;2024-01-10T11:04:49;16.88;;;8.52;;
39222;SDS011;24936;46.328;11.026;2024-01-10T11:07:16;27.95;;;11.70;;
39222;SDS011;24936;46.328;11.026;2024-01-10T11:09:43;17.88;;;10.98;;
39222;SDS011;24936;46.328;11.026;2024-01-10T11:14:56;15.00;;;9.85;;
39222;SDS011;24936;46.328;11.026;2024-01-10T11:22:50;9.82;;;7.07;;
39222;SDS011;24936;46.328;11.026;2024-01-10T11:25:29;12.65;;;8.75;;
39222;SDS011;24936;46.328;11.026;2024-01-10T11:27:55;16.25;;;7.90;;
39222;SDS011;24936;46.328;11.026;2024-01-10T11:30:37;13.60;;;9.60;;
39222;SDS011;24936;46.328;11.026;2024-01-10T11:33:20;8.88;;;6.53;;
39222;SDS011;24936;46.328;11.026;2024-01-10T11:41:22;27.52;;;13.05;;
39222;SDS011;24936;46.328;11.026;2024-01-10T11:49:13;18.98;;;12.88;;
39222;SDS011;24936;46.328;11.026;2024-01-10T11:51:46;11.93;;;8.50;;
39222;SDS011;24936;46.328;11.026;2024-01-10T11:57:10;16.15;;;10.50;;
39222;SDS011;24936;46.328;11.026;2024-01-10T11:59:42;21.75;;;8.70;;
39222;SDS011;24936;46.328;11.026;2024-01-10T12:02:12;14.18;;;9.45;;
39222;SDS011;24936;46.328;11.026;2024-01-10T12:04:39;28.50;;;10.13;;
39222;SDS011;24936;46.328;11.026;2024-01-10T12:07:05;19.92;;;11.45;;
39222;SDS011;24936;46.328;11.026;2024-01-10T12:09:32;21.67;;;9.20;;
39222;SDS011;24936;46.328;11.026;2024-01-10T12:11:58;13.95;;;10.32;;
39222;SDS011;24936;46.328;11.026;2024-01-10T12:14:23;13.90;;;8.73;;
39222;SDS011;24936;46.328;11.026;2024-01-10T12:16:50;10.70;;;8.18;;
39222;SDS011;24936;46.328;11.026;2024-01-10T12:19:17;12.55;;;9.48;;
39222;SDS011;24936;46.328;11.026;2024-01-10T12:21:42;18.30;;;10.82;;
39222;SDS011;24936;46.328;11.026;2024-01-10T12:24:08;35.92;;;12.02;;
39222;SDS011;24936;46.328;11.026;2024-01-10T12:26:33;11.48;;;9.77;;
39222;SDS011;24936;46.328;11.026;2024-01-10T12:29:01;33.03;;;9.35;;
39222;SDS011;24936;46.328;11.026;2024-01-10T12:31:29;16.58;;;10.35;;
39222;SDS011;24936;46.328;11.026;2024-01-10T12:33:55;18.27;;;11.13;;
39222;SDS011;24936;46.328;11.026;2024-01-10T12:36:21;16.58;;;9.50;;
39222;SDS011;24936;46.328;11.026;2024-01-10T12:38:47;19.55;;;11.25;;
39222;SDS011;24936;46.328;11.026;2024-01-10T12:41:16;12.63;;;9.77;;
39222;SDS011;24936;46.328;11.026;2024-01-10T12:43:49;19.00;;;11.05;;
39222;SDS011;24936;46.328;11.026;2024-01-10T12:46:15;13.48;;;10.20;;
39222;SDS011;24936;46.328;11.026;2024-01-10T12:48:41;13.35;;;9.35;;
39222;SDS011;24936;46.328;11.026;2024-01-10T12:51:11;14.18;;;9.65;;
39222;SDS011;24936;46.328;11.026;2024-01-10T12:56:07;16.20;;;11.25;;
39222;SDS011;24936;46.328;11.026;2024-01-10T12:58:34;30.40;;;11.05;;
39222;SDS011;24936;46.328;11.026;2024-01-10T13:01:01;15.40;;;10.07;;
39222;SDS011;24936;46.328;11.026;2024-01-10T13:03:28;14.02;;;8.20;;
39222;SDS011;24936;46.328;11.026;2024-01-10T13:05:55;14.60;;;8.20;;
39222;SDS011;24936;46.328;11.026;2024-01-10T13:08:20;11.65;;;8.85;;
39222;SDS011;24936;46.328;11.026;2024-01-10T13:10:46;15.05;;;9.23;;
39222;SDS011;24936;46.328;11.026;2024-01-10T13:13:13;21.10;;;11.43;;
39222;SDS011;24936;46.328;11.026;2024-01-10T13:15:39;10.82;;;8.00;;
39222;SDS011;24936;46.328;11.026;2024-01-10T13:18:05;17.98;;;10.35;;
39222;SDS011;24936;46.328;11.026;2024-01-10T13:20:31;20.15;;;7.88;;
39222;SDS011;24936;46.328;11.026;2024-01-10T13:22:57;11.05;;;8.65;;
39222;SDS011;24936;46.328;11.026;2024-01-10T13:25:23;11.57;;;7.97;;
39222;SDS011;24936;46.328;11.026;2024-01-10T13:27:51;11.43;;;7.47;;
39222;SDS011;24936;46.328;11.026;2024-01-10T13:30:17;13.95;;;9.38;;
39222;SDS011;24936;46.328;11.026;2024-01-10T13:32:43;12.65;;;8.68;;
39222;SDS011;24936;46.328;11.026;2024-01-10T13:35:09;13.95;;;9.07;;
39222;SDS011;24936;46.328;11.026;2024-01-10T13:37:34;12.90;;;8.88;;
39222;SDS011;24936;46.328;11.026;2024-01-10T13:40:00;13.68;;;9.25;;
39222;SDS011;24936;46.328;11.026;2024-01-10T13:42:30;16.85;;;9.15;;
39222;SDS011;24936;46.328;11.026;2024-01-10T13:44:56;21.02;;;11.57;;
39222;SDS011;24936;46.328;11.026;2024-01-10T13:47:21;10.18;;;8.18;;
39222;SDS011;24936;46.328;11.026;2024-01-10T13:49:47;33.15;;;15.35;;
39222;SDS011;24936;46.328;11.026;2024-01-10T13:52:12;21.42;;;10.43;;
39222;SDS011;24936;46.328;11.026;2024-01-10T13:54:38;36.38;;;15.82;;
39222;SDS011;24936;46.328;11.026;2024-01-10T13:57:03;20.13;;;10.90;;
39222;SDS011;24936;46.328;11.026;2024-01-10T13:59:29;16.02;;;8.52;;
39222;SDS011;24936;46.328;11.026;2024-01-10T14:01:55;9.75;;;7.50;;
39222;SDS011;24936;46.328;11.026;2024-01-10T14:04:20;17.40;;;10.38;;
39222;SDS011;24936;46.328;11.026;2024-01-10T14:06:47;13.60;;;9.40;;
39222;SDS011;24936;46.328;11.026;2024-01-10T14:09:13;26.55;;;10.75;;
39222;SDS011;24936;46.328;11.026;2024-01-10T14:11:38;15.90;;;10.10;;
39222;SDS011;24936;46.328;11.026;2024-01-10T14:14:04;15.18;;;9.20;;
39222;SDS011;24936;46.328;11.026;2024-01-10T14:16:31;15.57;;;8.82;;
39222;SDS011;24936;46.328;11.026;2024-01-10T14:18:56;17.92;;;9.77;;
39222;SDS011;24936;46.328;11.026;2024-01-10T14:21:22;12.10;;;8.93;;
39222;SDS011;24936;46.328;11.026;2024-01-10T14:23:48;22.80;;;14.25;;
39222;SDS011;24936;46.328;11.026;2024-01-10T14:26:16;18.40;;;12.48;;
39222;SDS011;24936;46.328;11.026;2024-01-10T14:28:41;22.40;;;13.60;;
39222;SDS011;24936;46.328;11.026;2024-01-10T14:31:07;22.27;;;13.73;;
39222;SDS011;24936;46.328;11.026;2024-01-10T14:33:35;21.58;;;12.02;;
39222;SDS011;24936;46.328;11.026;2024-01-10T14:36:00;14.75;;;10.50;;
39222;SDS011;24936;46.328;11.026;2024-01-10T14:38:25;20.33;;;13.20;;
39222;SDS011;24936;46.328;11.026;2024-01-10T14:40:51;24.63;;;13.10;;
39222;SDS011;24936;46.328;11.026;2024-01-10T14:43:17;13.50;;;10.05;;
39222;SDS011;24936;46.328;11.026;2024-01-10T14:45:43;13.82;;;10.07;;